createdAt,value
2022-11-25T00:01:51.731Z,96451.63
2022-11-25T00:04:20.059Z,96502.94
2022-11-25T00:06:48.308Z,96482.44
2022-11-25T00:09:17.942Z,96475.66
2022-11-25T00:11:46.226Z,96442.06
2022-11-25T00:14:16.288Z,96422.13
2022-11-25T00:16:48.431Z,96457.38
2022-11-25T00:19:17.813Z,96519.13
2022-11-25T00:21:46.307Z,96418.75
2022-11-25T00:24:17.710Z,96489.50
2022-11-25T00:26:46.057Z,96515.50
2022-11-25T00:29:14.940Z,96540.88
2022-11-25T00:31:43.348Z,96440.50
2022-11-25T00:34:14.653Z,96484.53
2022-11-25T00:36:43.138Z,96473.56
2022-11-25T00:39:14.094Z,96462.97
2022-11-25T00:42:01.867Z,96516.03
2022-11-25T00:44:40.909Z,96498.53
2022-11-25T00:47:11.891Z,96509.19
2022-11-25T00:49:42.405Z,96494.72
2022-11-25T00:52:14.807Z,96471.84
2022-11-25T00:54:44.636Z,96492.75
2022-11-25T00:57:14.712Z,96472.03
2022-11-25T00:59:43.040Z,96476.09
2022-11-25T01:02:12.466Z,96538.84
2022-11-25T01:04:41.191Z,96485.00
2022-11-25T01:07:09.819Z,96521.16
2022-11-25T01:09:38.630Z,96501.66
2022-11-25T01:12:07.209Z,96469.88
2022-11-25T01:14:37.216Z,96483.31
2022-11-25T01:17:05.725Z,96570.13
2022-11-25T01:19:34.507Z,96528.41
2022-11-25T01:22:02.801Z,96492.84
2022-11-25T01:24:31.098Z,96537.81
2022-11-25T01:26:59.783Z,96522.41
2022-11-25T01:29:29.221Z,96527.84
2022-11-25T01:31:58.928Z,96514.00
2022-11-25T01:34:29.771Z,96526.22
2022-11-25T01:36:58.799Z,96522.91
2022-11-25T01:39:32.644Z,96478.16
2022-11-25T01:42:02.017Z,96531.41
2022-11-25T01:44:32.360Z,96541.97
2022-11-25T01:47:10.617Z,96509.53
2022-11-25T01:49:48.843Z,96526.00
2022-11-25T01:52:22.562Z,96533.69
2022-11-25T01:54:55.844Z,96474.25
2022-11-25T01:57:32.044Z,96527.88
2022-11-25T02:00:04.933Z,96523.41
2022-11-25T02:02:48.969Z,96505.63
2022-11-25T02:05:22.355Z,96456.28
2022-11-25T02:07:52.579Z,96564.22
2022-11-25T02:10:28.433Z,96486.34
2022-11-25T02:12:57.565Z,96511.06
2022-11-25T02:15:26.917Z,96512.97
2022-11-25T02:17:57.014Z,96468.22
2022-11-25T02:20:26.747Z,96413.97
2022-11-25T02:23:03.392Z,96537.00
2022-11-25T02:25:35.504Z,96549.13
2022-11-25T02:28:11.284Z,96514.72
2022-11-25T02:30:40.631Z,96520.41
2022-11-25T02:33:09.331Z,96492.44
2022-11-25T02:35:39.546Z,96510.66
2022-11-25T02:38:13.392Z,96495.75
2022-11-25T02:40:50.450Z,96489.16
2022-11-25T02:43:19.146Z,96494.09
2022-11-25T02:45:56.847Z,96442.03
2022-11-25T02:48:52.828Z,96467.81
2022-11-25T02:51:18.253Z,96497.72
2022-11-25T02:53:46.797Z,96517.38
2022-11-25T02:56:17.847Z,96554.75
2022-11-25T02:58:46.105Z,96495.13
2022-11-25T03:01:14.839Z,96438.63
2022-11-25T03:03:51.128Z,96505.19
2022-11-25T03:06:19.360Z,96464.72
2022-11-25T03:08:47.646Z,96467.81
2022-11-25T03:11:44.246Z,96391.09
2022-11-25T03:14:12.727Z,96472.16
2022-11-25T03:16:41.070Z,96495.13
2022-11-25T03:19:09.549Z,96442.16
2022-11-25T03:21:38.078Z,96532.19
2022-11-25T03:24:07.551Z,96463.88
2022-11-25T03:26:37.298Z,96542.88
2022-11-25T03:29:05.618Z,96504.16
2022-11-25T03:31:35.906Z,96503.72
2022-11-25T03:34:04.592Z,96503.19
2022-11-25T03:36:32.988Z,96486.94
2022-11-25T03:39:01.823Z,96462.22
2022-11-25T03:41:30.130Z,96463.88
2022-11-25T03:44:00.338Z,96498.66
2022-11-25T03:46:28.625Z,96687.81
2022-11-25T03:48:57.398Z,96468.13
2022-11-25T03:51:25.791Z,96472.63
2022-11-25T03:53:54.822Z,96500.69
2022-11-25T03:56:24.711Z,96525.84
2022-11-25T03:58:53.067Z,96457.44
2022-11-25T04:01:23.370Z,96497.97
2022-11-25T04:03:52.129Z,96464.78
2022-11-25T04:06:22.112Z,96480.38
2022-11-25T04:08:54.100Z,96509.78
2022-11-25T04:11:42.793Z,96512.69
2022-11-25T04:14:11.252Z,96419.16
2022-11-25T04:16:41.026Z,96494.25
2022-11-25T04:19:09.307Z,96490.63
2022-11-25T04:21:37.629Z,96474.72
2022-11-25T04:24:07.110Z,96490.13
2022-11-25T04:26:37.873Z,96419.25
2022-11-25T04:29:06.762Z,96447.19
2022-11-25T04:31:36.477Z,96473.03
2022-11-25T04:34:06.750Z,96388.16
2022-11-25T04:36:35.778Z,96508.59
2022-11-25T04:39:05.149Z,96432.28
2022-11-25T04:41:34.890Z,96428.66
2022-11-25T04:44:03.582Z,96475.63
2022-11-25T04:46:38.182Z,96447.19
2022-11-25T04:49:08.226Z,96486.50
2022-11-25T04:51:36.554Z,96510.81
2022-11-25T04:54:07.814Z,96496.13
2022-11-25T04:56:37.883Z,96493.22
2022-11-25T04:59:25.135Z,96473.97
2022-11-25T05:01:54.635Z,96494.63
2022-11-25T05:04:40.370Z,96528.19
2022-11-25T05:07:10.587Z,96482.13
2022-11-25T05:09:40.177Z,96414.47
2022-11-25T05:12:18.494Z,96460.94
2022-11-25T05:14:47.574Z,96525.03
2022-11-25T05:17:18.454Z,96501.84
2022-11-25T05:19:48.660Z,96490.03
2022-11-25T05:22:19.838Z,96478.13
2022-11-25T05:24:48.795Z,96487.47
2022-11-25T05:27:17.993Z,96537.00
2022-11-25T05:29:51.386Z,96491.88
2022-11-25T05:32:22.816Z,96505.53
2022-11-25T05:34:52.799Z,96487.09
2022-11-25T05:37:24.581Z,96492.50
2022-11-25T05:40:00.165Z,96457.13
2022-11-25T05:42:31.299Z,96457.69
2022-11-25T05:45:02.978Z,96440.22
2022-11-25T05:47:32.574Z,96514.88
2022-11-25T05:50:09.674Z,96479.50
2022-11-25T05:52:38.032Z,96511.38
2022-11-25T05:55:08.055Z,96476.22
2022-11-25T05:57:36.429Z,96486.75
2022-11-25T06:00:09.715Z,96478.91
2022-11-25T06:02:45.315Z,96519.59
2022-11-25T06:05:17.741Z,96535.16
2022-11-25T06:07:46.099Z,96510.44
2022-11-25T06:10:14.823Z,96478.59
2022-11-25T06:12:43.687Z,96490.28
2022-11-25T06:15:13.178Z,96454.09
2022-11-25T06:17:41.704Z,96499.53
2022-11-25T06:20:17.406Z,96527.00
2022-11-25T06:22:47.122Z,96520.88
2022-11-25T06:25:18.029Z,96516.34
2022-11-25T06:28:11.728Z,96506.44
2022-11-25T06:30:36.896Z,96525.59
2022-11-25T06:33:26.069Z,96561.97
2022-11-25T06:35:56.803Z,96549.41
2022-11-25T06:38:25.056Z,96477.97
2022-11-25T06:40:56.376Z,96534.44
2022-11-25T06:43:27.404Z,96459.78
2022-11-25T06:45:55.690Z,96491.56
2022-11-25T06:48:24.040Z,96495.88
2022-11-25T06:51:02.969Z,96556.53
2022-11-25T06:53:33.123Z,96525.91
2022-11-25T06:56:08.003Z,96580.56
2022-11-25T06:58:36.930Z,96561.50
2022-11-25T07:01:08.190Z,96547.69
2022-11-25T07:03:36.920Z,96564.25
2022-11-25T07:06:07.623Z,96541.59
2022-11-25T07:08:36.227Z,96535.19
2022-11-25T07:11:07.476Z,96535.03
2022-11-25T07:13:35.939Z,96570.59
2022-11-25T07:16:05.991Z,96607.53
2022-11-25T07:18:36.119Z,96555.66
2022-11-25T07:21:10.621Z,96550.06
2022-11-25T07:23:39.758Z,96602.59
2022-11-25T07:26:10.274Z,96585.69
2022-11-25T07:28:39.771Z,96572.84
2022-11-25T07:34:03.427Z,96541.28
2022-11-25T07:36:34.819Z,96546.06
2022-11-25T07:39:08.158Z,96508.38
2022-11-25T07:41:36.633Z,96568.81
2022-11-25T07:44:08.949Z,96529.44
2022-11-25T07:46:48.939Z,96586.03
2022-11-25T07:49:20.587Z,96504.00
2022-11-25T07:51:53.643Z,96583.28
2022-11-25T07:54:23.413Z,96615.75
2022-11-25T07:56:51.854Z,96586.41
2022-11-25T07:59:22.599Z,96614.69
2022-11-25T08:01:51.844Z,96577.03
2022-11-25T08:04:21.309Z,96554.28
2022-11-25T08:06:53.034Z,96534.47
2022-11-25T08:09:24.296Z,96582.97
2022-11-25T08:11:54.165Z,96546.31
2022-11-25T08:14:22.824Z,96557.91
2022-11-25T08:16:51.273Z,96568.69
2022-11-25T08:19:20.050Z,96553.38
2022-11-25T08:21:48.809Z,96548.34
2022-11-25T08:24:21.689Z,96606.41
2022-11-25T08:26:51.346Z,96566.13
2022-11-25T08:29:20.886Z,96599.84
2022-11-25T08:31:49.156Z,96550.44
2022-11-25T08:34:20.877Z,96579.50
2022-11-25T08:36:50.886Z,96577.38
2022-11-25T08:39:51.015Z,96584.47
2022-11-25T08:42:10.644Z,96576.88
2022-11-25T08:44:39.050Z,96524.22
2022-11-25T08:47:07.387Z,96633.31
2022-11-25T08:49:41.772Z,96610.38
2022-11-25T08:52:10.956Z,96465.09
2022-11-25T08:54:40.635Z,96585.34
2022-11-25T08:57:09.425Z,96484.88
2022-11-25T08:59:38.291Z,96576.75
2022-11-25T09:02:08.139Z,96618.16
2022-11-25T09:04:36.845Z,96582.22
2022-11-25T09:07:06.446Z,96603.75
2022-11-25T09:09:35.398Z,96577.38
2022-11-25T09:12:06.090Z,96517.66
2022-11-25T09:14:34.542Z,96604.84
2022-11-25T09:17:03.769Z,96552.13
2022-11-25T09:19:32.103Z,96598.59
2022-11-25T09:22:00.410Z,96614.91
2022-11-25T09:24:29.045Z,96595.56
2022-11-25T09:26:57.544Z,96589.16
2022-11-25T09:29:27.851Z,96629.53
2022-11-25T09:31:56.120Z,96635.97
2022-11-25T09:34:24.537Z,96639.34
2022-11-25T09:36:52.903Z,96581.25
2022-11-25T09:39:21.283Z,96610.41
2022-11-25T09:42:26.391Z,96634.13
2022-11-25T09:45:32.366Z,96605.22
2022-11-25T09:48:22.285Z,96602.50
2022-11-25T09:51:06.694Z,96635.13
2022-11-25T09:53:45.396Z,96628.69
2022-11-25T09:56:23.730Z,96648.50
2022-11-25T09:58:58.126Z,96601.75
2022-11-25T10:01:31.205Z,96591.84
2022-11-25T10:04:05.668Z,96575.31
2022-11-25T10:06:42.259Z,96559.38
2022-11-25T10:09:15.349Z,96596.25
2022-11-25T10:11:53.106Z,96610.72
2022-11-25T10:14:33.960Z,96596.16
2022-11-25T10:17:16.383Z,96593.38
2022-11-25T10:19:56.524Z,96570.41
2022-11-25T10:22:28.546Z,96611.41
2022-11-25T10:25:00.420Z,96608.38
2022-11-25T10:27:40.189Z,96553.59
2022-11-25T10:30:19.344Z,96577.81
2022-11-25T10:33:04.928Z,96631.91
2022-11-25T10:35:39.447Z,96595.44
2022-11-25T10:38:18.756Z,96475.22
2022-11-25T10:40:51.439Z,96531.91
2022-11-25T10:43:19.807Z,96614.03
2022-11-25T10:45:56.226Z,96598.44
2022-11-25T10:48:45.256Z,96641.69
2022-11-25T10:51:32.454Z,96617.72
2022-11-25T10:54:25.568Z,96581.94
2022-11-25T10:56:58.467Z,96605.72
2022-11-25T10:59:31.361Z,96591.25
2022-11-25T11:02:20.658Z,96568.78
2022-11-25T11:05:06.480Z,96638.09
2022-11-25T11:07:39.080Z,96620.16
2022-11-25T11:10:23.822Z,96617.94
2022-11-25T11:12:58.556Z,96589.84
2022-11-25T11:15:29.641Z,96616.28
2022-11-25T11:18:01.028Z,96590.16
2022-11-25T11:20:32.505Z,96519.19
2022-11-25T11:23:09.141Z,96597.19
2022-11-25T11:25:39.965Z,96609.31
2022-11-25T11:28:29.037Z,96628.84
2022-11-25T11:31:02.363Z,96588.50
2022-11-25T11:33:37.006Z,96598.66
2022-11-25T11:36:26.884Z,96571.09
2022-11-25T11:39:11.185Z,96520.84
2022-11-25T11:41:47.035Z,96622.66
2022-11-25T11:44:27.695Z,96596.34
2022-11-25T11:47:14.963Z,96648.28
2022-11-25T11:50:09.907Z,96693.84
2022-11-25T11:52:56.368Z,96597.06
2022-11-25T11:56:27.020Z,96648.03
2022-11-25T11:59:01.483Z,96716.31
2022-11-25T12:01:49.032Z,96634.50
2022-11-25T12:04:23.810Z,96685.59
2022-11-25T12:07:03.178Z,96657.66
2022-11-25T12:09:38.465Z,96676.09
2022-11-25T12:12:10.669Z,96671.13
2022-11-25T12:14:46.439Z,96684.38
2022-11-25T12:17:20.390Z,96706.66
2022-11-25T12:19:58.031Z,96689.44
2022-11-25T12:22:31.227Z,96595.94
2022-11-25T12:25:09.002Z,96695.06
2022-11-25T12:27:42.105Z,96692.44
2022-11-25T12:30:17.158Z,96632.56
2022-11-25T12:32:54.681Z,96672.22
2022-11-25T12:35:35.847Z,96687.28
2022-11-25T12:38:16.454Z,96668.88
2022-11-25T12:40:51.804Z,96574.91
2022-11-25T12:43:33.843Z,96709.31
2022-11-25T12:46:14.878Z,96719.78
2022-11-25T12:48:44.882Z,96718.94
2022-11-25T12:51:26.820Z,96676.19
2022-11-25T12:54:06.313Z,96710.56
2022-11-25T12:56:56.844Z,96729.53
2022-11-25T13:00:17.490Z,96745.22
2022-11-25T13:03:20.562Z,96676.97
2022-11-25T13:06:19.928Z,96741.22
2022-11-25T13:08:58.474Z,96682.91
2022-11-25T13:12:14.119Z,96746.88
2022-11-25T13:15:17.555Z,96667.59
2022-11-25T13:17:49.970Z,96700.72
2022-11-25T13:20:46.691Z,96721.94
2022-11-25T13:23:31.132Z,96734.69
2022-11-25T13:26:48.935Z,96747.78
2022-11-25T13:30:04.442Z,96727.16
2022-11-25T13:32:42.143Z,96744.47
2022-11-25T13:35:50.650Z,96757.13
2022-11-25T13:38:39.333Z,96737.91
2022-11-25T13:41:26.393Z,96753.53
2022-11-25T13:44:02.219Z,96739.84
2022-11-25T13:46:40.651Z,96771.88
2022-11-25T13:49:25.023Z,96764.28
2022-11-25T13:51:56.753Z,96742.06
2022-11-25T13:54:33.488Z,96696.91
2022-11-25T13:57:24.798Z,96757.88
2022-11-25T13:59:57.979Z,96782.91
2022-11-25T14:02:45.198Z,96831.22
2022-11-25T14:05:46.511Z,96655.53
2022-11-25T14:08:28.884Z,96786.72
2022-11-25T14:11:26.144Z,96792.94
2022-11-25T14:14:27.621Z,96595.06
2022-11-25T14:17:17.333Z,96777.28
2022-11-25T14:20:05.545Z,96745.22
2022-11-25T14:23:25.943Z,96767.69
2022-11-25T14:25:57.250Z,96740.75
2022-11-25T14:28:33.154Z,96769.69
2022-11-25T14:31:10.072Z,96740.75
2022-11-25T14:33:48.365Z,96756.16
2022-11-25T14:36:23.255Z,96788.16
2022-11-25T14:38:56.436Z,96824.16
2022-11-25T14:41:29.790Z,96801.78
2022-11-25T14:44:08.097Z,96817.25
2022-11-25T14:46:36.643Z,96841.13
2022-11-25T14:49:14.477Z,96780.38
2022-11-25T14:51:54.655Z,96813.69
2022-11-25T14:54:23.844Z,96803.59
2022-11-25T14:56:52.965Z,96794.44
2022-11-25T14:59:22.103Z,96822.00
2022-11-25T15:01:55.797Z,96801.06
2022-11-25T15:04:50.933Z,96838.19
2022-11-25T15:07:30.822Z,96820.09
2022-11-25T15:09:59.492Z,96812.03
2022-11-25T15:12:32.812Z,96839.34
2022-11-25T15:15:01.411Z,96848.63
2022-11-25T15:17:32.126Z,96836.28
2022-11-25T15:20:05.245Z,96874.38
2022-11-25T15:22:35.126Z,96851.19
2022-11-25T15:25:11.445Z,96835.66
2022-11-25T15:27:47.141Z,96908.56
2022-11-25T15:30:24.767Z,96836.63
2022-11-25T15:32:54.245Z,96888.44
2022-11-25T15:35:26.015Z,96914.97
2022-11-25T15:37:55.820Z,96867.59
2022-11-25T15:40:41.070Z,96877.22
2022-11-25T15:43:24.092Z,96861.00
2022-11-25T15:45:57.671Z,96878.31
2022-11-25T15:48:30.108Z,96880.06
2022-11-25T15:51:04.433Z,96875.31
2022-11-25T15:53:39.214Z,96851.91
2022-11-25T15:56:12.170Z,96887.25
2022-11-25T15:58:43.847Z,96879.13
2022-11-25T16:01:23.607Z,96882.03
2022-11-25T16:03:53.043Z,96886.25
2022-11-25T16:06:24.486Z,96890.69
2022-11-25T16:08:58.645Z,96889.88
2022-11-25T16:11:33.340Z,96867.59
2022-11-25T16:14:24.017Z,96923.13
2022-11-25T16:16:53.034Z,96899.50
2022-11-25T16:19:23.302Z,96932.84
2022-11-25T16:22:01.959Z,96911.50
2022-11-25T16:24:54.881Z,96941.03
2022-11-25T16:27:29.465Z,96954.28
2022-11-25T16:30:10.621Z,96955.66
2022-11-25T16:32:38.865Z,96925.41
2022-11-25T16:35:15.813Z,96933.88
2022-11-25T16:37:48.884Z,96939.03
2022-11-25T16:40:20.187Z,96993.22
2022-11-25T16:42:50.771Z,96903.88
2022-11-25T16:45:22.485Z,96904.84
2022-11-25T16:47:51.026Z,96941.44
2022-11-25T16:50:21.106Z,96946.53
2022-11-25T16:52:49.705Z,96966.38
2022-11-25T16:55:19.417Z,96942.91
2022-11-25T16:57:48.185Z,96956.19
2022-11-25T17:00:18.449Z,96973.75
2022-11-25T17:02:46.912Z,96986.06
2022-11-25T17:05:20.052Z,96971.47
2022-11-25T17:07:50.267Z,96996.09
2022-11-25T17:10:21.566Z,96943.34
2022-11-25T17:12:50.667Z,97003.66
2022-11-25T17:15:22.187Z,97020.78
2022-11-25T17:17:50.702Z,96966.31
2022-11-25T17:20:23.868Z,97015.78
2022-11-25T17:22:53.201Z,96992.34
2022-11-25T17:25:25.637Z,97008.97
2022-11-25T17:27:55.109Z,96964.34
2022-11-25T17:30:26.353Z,96997.06
2022-11-25T17:32:59.928Z,97007.50
2022-11-25T17:35:28.208Z,96961.72
2022-11-25T17:38:02.937Z,97026.53
2022-11-25T17:40:33.197Z,96947.63
2022-11-25T17:43:01.448Z,96991.50
2022-11-25T17:45:29.881Z,96978.16
2022-11-25T17:47:58.185Z,97018.84
2022-11-25T17:50:27.551Z,96966.94
2022-11-25T17:52:55.777Z,97027.06
2022-11-25T17:55:24.053Z,97045.19
2022-11-25T17:57:53.930Z,96984.72
2022-11-25T18:00:23.760Z,97025.66
2022-11-25T18:02:52.574Z,97008.09
2022-11-25T18:05:24.278Z,97045.88
2022-11-25T18:07:52.873Z,96997.66
2022-11-25T18:10:25.370Z,97050.38
2022-11-25T18:12:57.550Z,97060.16
2022-11-25T18:15:29.535Z,97056.91
2022-11-25T18:18:03.639Z,97038.50
2022-11-25T18:20:33.037Z,97028.09
2022-11-25T18:23:02.035Z,97046.47
2022-11-25T18:25:32.876Z,96926.31
2022-11-25T18:28:05.054Z,96969.75
2022-11-25T18:30:35.911Z,97085.91
2022-11-25T18:33:06.268Z,97061.56
2022-11-25T18:35:36.715Z,97061.56
2022-11-25T18:38:05.991Z,97144.53
2022-11-25T18:40:36.445Z,97087.56
2022-11-25T18:43:06.501Z,97092.81
2022-11-25T18:45:37.956Z,97073.31
2022-11-25T18:48:16.189Z,97044.41
2022-11-25T18:50:45.293Z,97064.00
2022-11-25T18:53:13.751Z,97154.03
2022-11-25T18:55:42.709Z,97023.53
2022-11-25T18:58:17.793Z,97095.78
2022-11-25T19:00:48.843Z,97109.44
2022-11-25T19:03:21.344Z,97099.81
2022-11-25T19:05:50.460Z,97128.63
2022-11-25T19:08:19.524Z,97085.94
2022-11-25T19:10:48.735Z,97123.91
2022-11-25T19:13:23.178Z,97126.72
2022-11-25T19:15:51.660Z,97100.50
2022-11-25T19:18:26.357Z,97146.88
2022-11-25T19:20:55.067Z,97081.53
2022-11-25T19:23:26.224Z,97098.00
2022-11-25T19:26:00.841Z,97225.53
2022-11-25T19:28:31.858Z,97200.25
2022-11-25T19:31:04.550Z,97145.44
2022-11-25T19:33:36.690Z,97194.47
2022-11-25T19:36:05.334Z,97144.44
2022-11-25T19:38:34.881Z,97167.34
2022-11-25T19:41:03.446Z,97177.03
2022-11-25T19:43:33.019Z,97179.91
2022-11-25T19:46:02.915Z,97152.38
2022-11-25T19:48:38.831Z,97144.25
2022-11-25T19:51:07.453Z,97209.69
2022-11-25T19:53:35.697Z,97201.84
2022-11-25T19:56:04.921Z,97208.47
2022-11-25T19:58:34.795Z,97225.78
2022-11-25T20:01:05.934Z,97250.66
2022-11-25T20:03:34.584Z,97255.25
2022-11-25T20:06:02.918Z,97247.88
2022-11-25T20:08:31.255Z,97197.78
2022-11-25T20:10:59.840Z,97163.56
2022-11-25T20:13:28.118Z,97232.09
2022-11-25T20:15:59.842Z,97213.50
2022-11-25T20:18:28.755Z,97170.69
2022-11-25T20:21:02.972Z,97266.63
2022-11-25T20:23:40.015Z,97197.09
2022-11-25T20:26:08.594Z,97243.34
2022-11-25T20:28:36.893Z,97254.16
2022-11-25T20:31:06.813Z,97214.19
2022-11-25T20:33:35.117Z,97262.81
2022-11-25T20:36:11.401Z,97272.34
2022-11-25T20:38:44.520Z,97260.69
2022-11-25T20:41:22.881Z,97246.66
2022-11-25T20:43:55.152Z,97306.53
2022-11-25T20:46:28.928Z,97210.66
2022-11-25T20:49:00.421Z,97252.94
2022-11-25T20:51:29.208Z,97281.66
2022-11-25T20:54:00.988Z,97256.63
2022-11-25T20:56:29.656Z,97309.78
2022-11-25T20:58:58.057Z,97160.00
2022-11-25T21:01:27.776Z,97296.72
2022-11-25T21:03:56.186Z,97275.41
2022-11-25T21:06:41.196Z,97334.44
2022-11-25T21:09:19.006Z,97271.84
2022-11-25T21:11:47.596Z,97260.69
2022-11-25T21:14:18.373Z,97283.72
2022-11-25T21:16:48.407Z,97263.47
2022-11-25T21:19:17.593Z,97274.41
2022-11-25T21:21:48.120Z,97313.41
2022-11-25T21:24:29.097Z,97315.53
2022-11-25T21:26:59.126Z,97167.38
2022-11-25T21:29:29.846Z,97321.50
2022-11-25T21:31:59.608Z,97361.09
2022-11-25T21:34:27.937Z,97307.03
2022-11-25T21:36:56.563Z,97341.81
2022-11-25T21:39:31.049Z,97326.41
2022-11-25T21:42:03.541Z,97329.22
2022-11-25T21:44:36.357Z,97327.25
2022-11-25T21:47:14.605Z,97161.63
2022-11-25T21:49:43.158Z,97339.66
2022-11-25T21:52:11.848Z,97316.69
2022-11-25T21:54:40.498Z,97336.56
2022-11-25T21:57:17.054Z,97346.03
2022-11-25T21:59:47.260Z,97358.84
2022-11-25T22:02:23.161Z,97364.31
2022-11-25T22:04:53.075Z,97383.91
2022-11-25T22:07:24.062Z,97369.72
2022-11-25T22:09:54.642Z,97320.78
2022-11-25T22:12:30.057Z,97346.34
2022-11-25T22:15:00.577Z,97337.34
2022-11-25T22:17:31.270Z,97375.25
2022-11-25T22:20:00.012Z,97346.78
2022-11-25T22:22:29.047Z,97317.16
2022-11-25T22:24:57.327Z,97309.81
2022-11-25T22:27:36.022Z,97367.59
2022-11-25T22:30:05.861Z,97385.94
2022-11-25T22:32:35.556Z,97392.25
2022-11-25T22:35:03.959Z,97373.91
2022-11-25T22:37:34.037Z,97366.72
2022-11-25T22:40:02.299Z,97374.09
2022-11-25T22:42:33.313Z,97403.19
2022-11-25T22:45:04.756Z,97391.19
2022-11-25T22:47:38.664Z,97403.59
2022-11-25T22:50:13.036Z,97441.56
2022-11-25T22:52:41.311Z,97370.59
2022-11-25T22:55:20.369Z,97397.28
2022-11-25T22:57:50.466Z,97396.34
2022-11-25T23:00:21.827Z,97404.97
2022-11-25T23:02:53.666Z,97338.25
2022-11-25T23:05:31.949Z,97401.47
2022-11-25T23:08:01.764Z,97396.19
2022-11-25T23:10:32.255Z,97403.28
2022-11-25T23:13:00.476Z,97435.63
2022-11-25T23:15:28.964Z,97410.03
2022-11-25T23:18:01.039Z,97400.94
2022-11-25T23:20:32.270Z,97477.16
2022-11-25T23:23:11.791Z,97416.63
2022-11-25T23:25:40.133Z,97327.72
2022-11-25T23:28:08.389Z,97409.06
2022-11-25T23:30:36.972Z,97366.59
2022-11-25T23:33:18.264Z,97399.63
2022-11-25T23:35:46.668Z,97378.44
2022-11-25T23:38:23.503Z,97431.16
2022-11-25T23:40:51.820Z,97404.03
2022-11-25T23:43:20.470Z,97440.00
2022-11-25T23:45:53.903Z,97429.06
2022-11-25T23:48:27.456Z,97378.56
2022-11-25T23:50:58.143Z,97416.06
2022-11-25T23:53:30.848Z,97414.56
2022-11-25T23:55:59.828Z,97398.75
2022-11-25T23:58:28.063Z,97415.28
